sensor_id;sensor_type;location;lat;lon;timestamp;pressure;altitude;pressure_sealevel;temperature;humidity
49459;BME280;35354;51.296;16.924;2023-01-27T00:01:25;99899.06;;;1.44;100.00
49459;BME280;35354;51.296;16.924;2023-01-27T00:03:51;99894.69;;;1.57;100.00
49459;BME280;35354;51.296;16.924;2023-01-27T00:06:16;99891.19;;;1.64;100.00
49459;BME280;35354;51.296;16.924;2023-01-27T00:08:41;99894.66;;;1.59;100.00
49459;BME280;35354;51.296;16.924;2023-01-27T00:11:07;99919.59;;;1.41;100.00
49459;BME280;35354;51.296;16.924;2023-01-27T00:13:50;99914.41;;;1.49;100.00
49459;BME280;35354;51.296;16.924;2023-01-27T00:16:15;99922.03;;;1.60;100.00
49459;BME280;35354;51.296;16.924;2023-01-27T00:18:41;99920.41;;;1.46;100.00
49459;BME280;35354;51.296;16.924;2023-01-27T00:21:06;99886.38;;;1.15;100.00
49459;BME280;35354;51.296;16.924;2023-01-27T00:23:50;99929.75;;;1.58;100.00
49459;BME280;35354;51.296;16.924;2023-01-27T00:26:34;99926.38;;;1.47;100.00
49459;BME280;35354;51.296;16.924;2023-01-27T00:28:59;99923.75;;;1.59;100.00
49459;BME280;35354;51.296;16.924;2023-01-27T00:31:25;99909.41;;;1.31;100.00
49459;BME280;35354;51.296;16.924;2023-01-27T00:34:08;99905.13;;;1.22;100.00
49459;BME280;35354;51.296;16.924;2023-01-27T00:36:39;99912.75;;;1.37;100.00
49459;BME280;35354;51.296;16.924;2023-01-27T00:39:06;99904.16;;;1.43;100.00
49459;BME280;35354;51.296;16.924;2023-01-27T00:41:31;99875.19;;;1.24;100.00
49459;BME280;35354;51.296;16.924;2023-01-27T00:43:58;99923.91;;;1.36;100.00
49459;BME280;35354;51.296;16.924;2023-01-27T00:46:24;99923.84;;;1.42;100.00
49459;BME280;35354;51.296;16.924;2023-01-27T00:48:50;99915.28;;;1.49;100.00
49459;BME280;35354;51.296;16.924;2023-01-27T00:51:19;99936.63;;;1.52;100.00
49459;BME280;35354;51.296;16.924;2023-01-27T00:53:45;99919.53;;;1.47;100.00
49459;BME280;35354;51.296;16.924;2023-01-27T00:56:11;99940.22;;;1.23;100.00
49459;BME280;35354;51.296;16.924;2023-01-27T00:58:36;99930.88;;;1.07;100.00
49459;BME280;35354;51.296;16.924;2023-01-27T01:01:05;99924.81;;;1.23;100.00
49459;BME280;35354;51.296;16.924;2023-01-27T01:03:32;99944.50;;;1.22;100.00
49459;BME280;35354;51.296;16.924;2023-01-27T01:06:00;99930.72;;;1.37;100.00
49459;BME280;35354;51.296;16.924;2023-01-27T01:08:26;99951.25;;;1.43;100.00
49459;BME280;35354;51.296;16.924;2023-01-27T01:10:52;99933.38;;;1.19;100.00
49459;BME280;35354;51.296;16.924;2023-01-27T01:13:18;99931.59;;;1.36;100.00
49459;BME280;35354;51.296;16.924;2023-01-27T01:15:44;99917.13;;;1.23;100.00
49459;BME280;35354;51.296;16.924;2023-01-27T01:18:09;99944.34;;;1.52;100.00
49459;BME280;35354;51.296;16.924;2023-01-27T01:20:37;99948.66;;;1.45;100.00
49459;BME280;35354;51.296;16.924;2023-01-27T01:23:03;99916.97;;;1.47;100.00
49459;BME280;35354;51.296;16.924;2023-01-27T01:25:29;99924.75;;;1.35;100.00
49459;BME280;35354;51.296;16.924;2023-01-27T01:27:54;99946.00;;;1.65;100.00
49459;BME280;35354;51.296;16.924;2023-01-27T01:30:19;99922.13;;;1.46;100.00
49459;BME280;35354;51.296;16.924;2023-01-27T01:32:46;99948.69;;;1.43;100.00
49459;BME280;35354;51.296;16.924;2023-01-27T01:35:12;99925.66;;;1.22;100.00
49459;BME280;35354;51.296;16.924;2023-01-27T01:37:37;99943.50;;;1.53;100.00
49459;BME280;35354;51.296;16.924;2023-01-27T01:40:02;99944.31;;;1.58;100.00
49459;BME280;35354;51.296;16.924;2023-01-27T01:48:06;99952.13;;;1.36;100.00
49459;BME280;35354;51.296;16.924;2023-01-27T01:50:33;99941.00;;;1.37;100.00
49459;BME280;35354;51.296;16.924;2023-01-27T01:53:00;99917.88;;;1.40;100.00
49459;BME280;35354;51.296;16.924;2023-01-27T01:55:29;99917.84;;;1.46;100.00
49459;BME280;35354;51.296;16.924;2023-01-27T01:57:56;99930.66;;;1.53;100.00
49459;BME280;35354;51.296;16.924;2023-01-27T02:00:21;99949.38;;;1.71;100.00
49459;BME280;35354;51.296;16.924;2023-01-27T02:02:47;99945.19;;;1.54;100.00
49459;BME280;35354;51.296;16.924;2023-01-27T02:05:22;99952.91;;;1.54;100.00
49459;BME280;35354;51.296;16.924;2023-01-27T02:08:09;99924.78;;;1.28;100.00
49459;BME280;35354;51.296;16.924;2023-01-27T02:10:37;99942.63;;;1.54;100.00
49459;BME280;35354;51.296;16.924;2023-01-27T02:13:03;99960.53;;;1.63;100.00
49459;BME280;35354;51.296;16.924;2023-01-27T02:15:29;99945.22;;;1.49;100.00
49459;BME280;35354;51.296;16.924;2023-01-27T02:17:56;99928.13;;;1.45;100.00
49459;BME280;35354;51.296;16.924;2023-01-27T02:25:47;99931.66;;;1.21;100.00
49459;BME280;35354;51.296;16.924;2023-01-27T02:28:15;99923.06;;;1.28;100.00
49459;BME280;35354;51.296;16.924;2023-01-27T02:30:40;99962.41;;;1.32;100.00
49459;BME280;35354;51.296;16.924;2023-01-27T02:33:10;99968.47;;;1.14;100.00
49459;BME280;35354;51.296;16.924;2023-01-27T02:35:48;99963.34;;;1.14;100.00
49459;BME280;35354;51.296;16.924;2023-01-27T02:38:16;99937.63;;;1.24;100.00
49459;BME280;35354;51.296;16.924;2023-01-27T02:40:43;99946.25;;;1.08;100.00
49459;BME280;35354;51.296;16.924;2023-01-27T02:43:10;99958.09;;;1.40;100.00
49459;BME280;35354;51.296;16.924;2023-01-27T02:45:35;99961.47;;;1.46;100.00
49459;BME280;35354;51.296;16.924;2023-01-27T02:48:01;99961.47;;;1.46;100.00
49459;BME280;35354;51.296;16.924;2023-01-27T02:50:27;99944.47;;;1.29;100.00
49459;BME280;35354;51.296;16.924;2023-01-27T02:52:52;99939.31;;;1.30;100.00
49459;BME280;35354;51.296;16.924;2023-01-27T02:55:18;99967.50;;;1.35;100.00
49459;BME280;35354;51.296;16.924;2023-01-27T02:57:43;99938.47;;;1.22;100.00
49459;BME280;35354;51.296;16.924;2023-01-27T03:00:09;99938.56;;;1.07;100.00
49459;BME280;35354;51.296;16.924;2023-01-27T03:02:37;99941.94;;;1.19;100.00
49459;BME280;35354;51.296;16.924;2023-01-27T03:05:02;99934.19;;;1.29;100.00
49459;BME280;35354;51.296;16.924;2023-01-27T03:07:28;99965.88;;;1.23;100.00
49459;BME280;35354;51.296;16.924;2023-01-27T03:09:53;99958.09;;;1.40;100.00
49459;BME280;35354;51.296;16.924;2023-01-27T03:12:19;99925.00;;;0.72;100.00
49459;BME280;35354;51.296;16.924;2023-01-27T03:14:45;99954.81;;;1.10;100.00
49459;BME280;35354;51.296;16.924;2023-01-27T03:17:28;99969.34;;;0.99;100.00
49459;BME280;35354;51.296;16.924;2023-01-27T03:20:13;99941.13;;;1.04;100.00
49459;BME280;35354;51.296;16.924;2023-01-27T03:22:38;99929.97;;;1.17;100.00
49459;BME280;35354;51.296;16.924;2023-01-27T03:25:04;99947.94;;;1.09;100.00
49459;BME280;35354;51.296;16.924;2023-01-27T03:27:30;99966.72;;;1.17;100.00
49459;BME280;35354;51.296;16.924;2023-01-27T03:29:55;99975.22;;;1.33;100.00
49459;BME280;35354;51.296;16.924;2023-01-27T03:32:26;99966.75;;;1.19;100.00
49459;BME280;35354;51.296;16.924;2023-01-27T03:34:51;99972.66;;;1.33;100.00
49459;BME280;35354;51.296;16.924;2023-01-27T03:37:17;99969.22;;;1.39;100.00
49459;BME280;35354;51.296;16.924;2023-01-27T03:40:02;99961.53;;;1.37;100.00
49459;BME280;35354;51.296;16.924;2023-01-27T03:42:47;99967.53;;;1.39;100.00
49459;BME280;35354;51.296;16.924;2023-01-27T03:45:31;99954.75;;;1.13;100.00
49459;BME280;35354;51.296;16.924;2023-01-27T03:48:15;99953.88;;;1.27;100.00
49459;BME280;35354;51.296;16.924;2023-01-27T03:50:42;99947.88;;;1.35;100.00
49459;BME280;35354;51.296;16.924;2023-01-27T03:53:17;99937.66;;;1.23;100.00
49459;BME280;35354;51.296;16.924;2023-01-27T03:55:43;99954.69;;;1.35;100.00
49459;BME280;35354;51.296;16.924;2023-01-27T03:58:27;99969.22;;;1.34;100.00
49459;BME280;35354;51.296;16.924;2023-01-27T04:00:57;99938.53;;;1.14;100.00
49459;BME280;35354;51.296;16.924;2023-01-27T04:03:25;99968.34;;;1.41;100.00
49459;BME280;35354;51.296;16.924;2023-01-27T04:06:12;99958.13;;;1.34;100.00
49459;BME280;35354;51.296;16.924;2023-01-27T04:08:56;99952.16;;;1.32;100.00
49459;BME280;35354;51.296;16.924;2023-01-27T04:11:22;99949.63;;;1.21;100.00
49459;BME280;35354;51.296;16.924;2023-01-27T04:14:06;99928.31;;;1.07;100.00
49459;BME280;35354;51.296;16.924;2023-01-27T04:16:33;99902.75;;;0.78;100.00
49459;BME280;35354;51.296;16.924;2023-01-27T04:18:58;99918.06;;;0.96;100.00
49459;BME280;35354;51.296;16.924;2023-01-27T04:21:25;99936.06;;;0.82;100.00
49459;BME280;35354;51.296;16.924;2023-01-27T04:23:51;99953.16;;;0.74;100.00
49459;BME280;35354;51.296;16.924;2023-01-27T04:26:17;99960.81;;;0.98;100.00
49459;BME280;35354;51.296;16.924;2023-01-27T04:28:42;99926.66;;;0.83;100.00
49459;BME280;35354;51.296;16.924;2023-01-27T04:31:08;99928.38;;;0.79;100.00
49459;BME280;35354;51.296;16.924;2023-01-27T04:33:33;99950.59;;;0.86;100.00
49459;BME280;35354;51.296;16.924;2023-01-27T04:35:59;99938.63;;;0.71;100.00
49459;BME280;35354;51.296;16.924;2023-01-27T04:38:24;99937.75;;;0.83;100.00
49459;BME280;35354;51.296;16.924;2023-01-27T04:40:49;99939.44;;;1.03;100.00
49459;BME280;35354;51.296;16.924;2023-01-27T04:43:14;99933.44;;;1.04;100.00
49459;BME280;35354;51.296;16.924;2023-01-27T04:45:40;99946.22;;;1.13;100.00
49459;BME280;35354;51.296;16.924;2023-01-27T04:48:05;99962.44;;;1.21;100.00
49459;BME280;35354;51.296;16.924;2023-01-27T04:50:31;99927.44;;;1.06;100.00
49459;BME280;35354;51.296;16.924;2023-01-27T04:52:57;99961.59;;;1.16;100.00
49459;BME280;35354;51.296;16.924;2023-01-27T04:55:22;99947.06;;;1.13;100.00
49459;BME280;35354;51.296;16.924;2023-01-27T04:57:48;99964.97;;;1.29;100.00
49459;BME280;35354;51.296;16.924;2023-01-27T05:00:13;99959.84;;;1.30;100.00
49459;BME280;35354;51.296;16.924;2023-01-27T05:02:39;99963.28;;;1.26;100.00
49459;BME280;35354;51.296;16.924;2023-01-27T05:05:05;99929.16;;;1.03;100.00
49459;BME280;35354;51.296;16.924;2023-01-27T05:07:31;99942.84;;;1.02;100.00
49459;BME280;35354;51.296;16.924;2023-01-27T05:09:56;99963.38;;;1.02;100.00
49459;BME280;35354;51.296;16.924;2023-01-27T05:12:21;99953.13;;;0.97;100.00
49459;BME280;35354;51.296;16.924;2023-01-27T05:14:47;99950.59;;;0.86;100.00
49459;BME280;35354;51.296;16.924;2023-01-27T05:17:12;99978.69;;;1.17;100.00
49459;BME280;35354;51.296;16.924;2023-01-27T05:19:37;99956.50;;;1.05;100.00
49459;BME280;35354;51.296;16.924;2023-01-27T05:22:03;99988.94;;;1.28;100.00
49459;BME280;35354;51.296;16.924;2023-01-27T05:24:28;99939.44;;;1.03;100.00
49459;BME280;35354;51.296;16.924;2023-01-27T05:26:53;99954.84;;;0.84;100.00
49459;BME280;35354;51.296;16.924;2023-01-27T05:29:19;99963.44;;;0.77;100.00
49459;BME280;35354;51.296;16.924;2023-01-27T05:31:44;99990.72;;;1.03;100.00
49459;BME280;35354;51.296;16.924;2023-01-27T05:34:09;99988.13;;;1.12;100.00
49459;BME280;35354;51.296;16.924;2023-01-27T05:36:35;99940.31;;;0.91;100.00
49459;BME280;35354;51.296;16.924;2023-01-27T05:39:00;99989.78;;;1.22;100.00
49459;BME280;35354;51.296;16.924;2023-01-27T05:41:28;99973.66;;;0.91;100.00
49459;BME280;35354;51.296;16.924;2023-01-27T05:43:55;99972.75;;;1.04;100.00
49459;BME280;35354;51.296;16.924;2023-01-27T05:46:26;99986.44;;;1.08;100.00
49459;BME280;35354;51.296;16.924;2023-01-27T05:48:53;100006.09;;;1.15;100.00
49459;BME280;35354;51.296;16.924;2023-01-27T05:51:20;99984.75;;;0.96;100.00
49459;BME280;35354;51.296;16.924;2023-01-27T05:53:47;100004.38;;;1.12;100.00
49459;BME280;35354;51.296;16.924;2023-01-27T05:56:18;99997.53;;;1.19;100.00
49459;BME280;35354;51.296;16.924;2023-01-27T05:58:44;99975.31;;;1.15;100.00
49459;BME280;35354;51.296;16.924;2023-01-27T06:01:11;100006.88;;;1.35;100.00
49459;BME280;35354;51.296;16.924;2023-01-27T06:03:38;100012.06;;;1.18;100.00
49459;BME280;35354;51.296;16.924;2023-01-27T06:06:04;100015.47;;;1.20;100.00
49459;BME280;35354;51.296;16.924;2023-01-27T06:08:30;99995.00;;;1.02;100.00
49459;BME280;35354;51.296;16.924;2023-01-27T06:10:57;99992.44;;;1.04;100.00
49459;BME280;35354;51.296;16.924;2023-01-27T06:13:23;100014.59;;;1.31;100.00
49459;BME280;35354;51.296;16.924;2023-01-27T06:15:49;99967.66;;;0.87;100.00
49459;BME280;35354;51.296;16.924;2023-01-27T06:18:16;99967.69;;;0.75;100.00
49459;BME280;35354;51.296;16.924;2023-01-27T06:20:42;100010.34;;;1.13;100.00
49459;BME280;35354;51.296;16.924;2023-01-27T06:23:09;100023.16;;;1.25;100.00
49459;BME280;35354;51.296;16.924;2023-01-27T06:25:38;100026.56;;;1.29;100.00
49459;BME280;35354;51.296;16.924;2023-01-27T06:28:05;99991.56;;;1.05;100.00
49459;BME280;35354;51.296;16.924;2023-01-27T06:30:32;100017.25;;;0.75;100.00
49459;BME280;35354;51.296;16.924;2023-01-27T06:32:58;100035.19;;;0.95;100.00
49459;BME280;35354;51.296;16.924;2023-01-27T06:35:23;100035.19;;;1.02;100.00
49459;BME280;35354;51.296;16.924;2023-01-27T06:37:48;100002.72;;;0.97;100.00
49459;BME280;35354;51.296;16.924;2023-01-27T06:40:16;100033.44;;;1.05;100.00
49459;BME280;35354;51.296;16.924;2023-01-27T06:42:42;100013.81;;;0.87;100.00
49459;BME280;35354;51.296;16.924;2023-01-27T06:45:09;100031.78;;;0.75;100.00
49459;BME280;35354;51.296;16.924;2023-01-27T06:47:35;100009.59;;;0.62;100.00
49459;BME280;35354;51.296;16.924;2023-01-27T06:50:00;100016.41;;;0.78;100.00
49459;BME280;35354;51.296;16.924;2023-01-27T06:52:25;100014.72;;;0.57;100.00
49459;BME280;35354;51.296;16.924;2023-01-27T06:54:51;100047.13;;;1.01;100.00
49459;BME280;35354;51.296;16.924;2023-01-27T06:57:16;100027.50;;;0.92;100.00
49459;BME280;35354;51.296;16.924;2023-01-27T06:59:41;100049.72;;;1.10;100.00
49459;BME280;35354;51.296;16.924;2023-01-27T07:02:10;100043.75;;;0.94;100.00
49459;BME280;35354;51.296;16.924;2023-01-27T07:04:36;100018.09;;;0.94;100.00
49459;BME280;35354;51.296;16.924;2023-01-27T07:07:02;100022.38;;;0.88;100.00
49459;BME280;35354;51.296;16.924;2023-01-27T07:09:27;100044.53;;;1.18;100.00
49459;BME280;35354;51.296;16.924;2023-01-27T07:11:53;100022.34;;;1.14;100.00
49459;BME280;35354;51.296;16.924;2023-01-27T07:14:18;100058.19;;;1.40;100.00
49459;BME280;35354;51.296;16.924;2023-01-27T07:16:44;100037.72;;;1.05;100.00
49459;BME280;35354;51.296;16.924;2023-01-27T07:19:09;100062.53;;;1.03;100.00
49459;BME280;35354;51.296;16.924;2023-01-27T07:21:36;100050.56;;;1.11;100.00
49459;BME280;35354;51.296;16.924;2023-01-27T07:24:02;100041.13;;;1.25;100.00
49459;BME280;35354;51.296;16.924;2023-01-27T07:26:28;100029.19;;;1.07;100.00
49459;BME280;35354;51.296;16.924;2023-01-27T07:28:54;100029.22;;;0.81;100.00
49459;BME280;35354;51.296;16.924;2023-01-27T07:31:19;100057.44;;;0.78;100.00
49459;BME280;35354;51.296;16.924;2023-01-27T07:33:45;100057.44;;;0.89;100.00
49459;BME280;35354;51.296;16.924;2023-01-27T07:36:10;100021.53;;;0.67;100.00
49459;BME280;35354;51.296;16.924;2023-01-27T07:38:35;100032.63;;;1.02;100.00
49459;BME280;35354;51.296;16.924;2023-01-27T07:41:05;100062.53;;;0.92;100.00
49459;BME280;35354;51.296;16.924;2023-01-27T07:43:31;100005.28;;;0.79;100.00
49459;BME280;35354;51.296;16.924;2023-01-27T07:45:57;100058.28;;;0.98;100.00
49459;BME280;35354;51.296;16.924;2023-01-27T07:48:22;100060.81;;;1.18;100.00
49459;BME280;35354;51.296;16.924;2023-01-27T07:50:48;100055.69;;;1.08;100.00
49459;BME280;35354;51.296;16.924;2023-01-27T07:53:13;100050.56;;;1.08;100.00
49459;BME280;35354;51.296;16.924;2023-01-27T07:55:38;100055.66;;;1.31;100.00
49459;BME280;35354;51.296;16.924;2023-01-27T07:58:04;100001.81;;;1.12;100.00
49459;BME280;35354;51.296;16.924;2023-01-27T08:00:30;100033.41;;;1.22;100.00
49459;BME280;35354;51.296;16.924;2023-01-27T08:02:56;100056.50;;;1.28;100.00
49459;BME280;35354;51.296;16.924;2023-01-27T08:05:22;100034.34;;;0.93;100.00
49459;BME280;35354;51.296;16.924;2023-01-27T08:07:48;100050.53;;;1.23;100.00
49459;BME280;35354;51.296;16.924;2023-01-27T08:10:14;100030.03;;;1.09;100.00
49459;BME280;35354;51.296;16.924;2023-01-27T08:12:42;100042.84;;;1.31;100.00
49459;BME280;35354;51.296;16.924;2023-01-27T08:15:07;100065.06;;;1.32;100.00
49459;BME280;35354;51.296;16.924;2023-01-27T08:17:33;100043.72;;;1.05;100.00
49459;BME280;35354;51.296;16.924;2023-01-27T08:19:58;100071.94;;;1.10;100.00
49459;BME280;35354;51.296;16.924;2023-01-27T08:22:24;100050.63;;;0.68;100.00
49459;BME280;35354;51.296;16.924;2023-01-27T08:24:49;100048.91;;;0.56;100.00
49459;BME280;35354;51.296;16.924;2023-01-27T08:27:15;100077.06;;;0.58;100.00
49459;BME280;35354;51.296;16.924;2023-01-27T08:29:42;100067.66;;;0.50;100.00
49459;BME280;35354;51.296;16.924;2023-01-27T08:32:07;100065.09;;;0.41;100.00
49459;BME280;35354;51.296;16.924;2023-01-27T08:34:33;100085.59;;;0.46;100.00
49459;BME280;35354;51.296;16.924;2023-01-27T08:36:59;100078.78;;;0.45;100.00
49459;BME280;35354;51.296;16.924;2023-01-27T08:39:24;100090.75;;;0.57;100.00
49459;BME280;35354;51.296;16.924;2023-01-27T08:41:49;100073.66;;;0.30;100.00
49459;BME280;35354;51.296;16.924;2023-01-27T08:44:15;100094.13;;;0.37;100.00
49459;BME280;35354;51.296;16.924;2023-01-27T08:46:40;100060.81;;;0.37;100.00
49459;BME280;35354;51.296;16.924;2023-01-27T08:49:06;100089.91;;;0.58;100.00
49459;BME280;35354;51.296;16.924;2023-01-27T08:51:31;100077.94;;;0.38;100.00
49459;BME280;35354;51.296;16.924;2023-01-27T08:53:56;100072.81;;;0.63;100.00
49459;BME280;35354;51.296;16.924;2023-01-27T08:56:22;100080.50;;;0.73;100.00
49459;BME280;35354;51.296;16.924;2023-01-27T08:58:47;100066.84;;;0.81;100.00
49459;BME280;35354;51.296;16.924;2023-01-27T09:01:14;100094.16;;;0.88;100.00
49459;BME280;35354;51.296;16.924;2023-01-27T09:03:39;100077.91;;;1.04;100.00
49459;BME280;35354;51.296;16.924;2023-01-27T09:06:07;100101.88;;;1.03;100.00
49459;BME280;35354;51.296;16.924;2023-01-27T09:08:33;100077.06;;;0.99;100.00
49459;BME280;35354;51.296;16.924;2023-01-27T09:10:59;100082.22;;;0.93;100.00
49459;BME280;35354;51.296;16.924;2023-01-27T09:13:24;100104.44;;;1.14;100.00
49459;BME280;35354;51.296;16.924;2023-01-27T09:15:51;100116.38;;;1.25;100.00
49459;BME280;35354;51.296;16.924;2023-01-27T09:18:16;100118.06;;;1.46;100.00
49459;BME280;35354;51.296;16.924;2023-01-27T09:20:41;100106.13;;;1.22;100.00
49459;BME280;35354;51.296;16.924;2023-01-27T09:23:07;100096.72;;;1.00;100.00
49459;BME280;35354;51.296;16.924;2023-01-27T09:25:32;100124.94;;;1.37;100.00
49459;BME280;35354;51.296;16.924;2023-01-27T09:27:58;100094.97;;;1.43;100.00
49459;BME280;35354;51.296;16.924;2023-01-27T09:30:24;100104.41;;;1.40;100.00
49459;BME280;35354;51.296;16.924;2023-01-27T09:32:50;100114.66;;;1.35;100.00
49459;BME280;35354;51.296;16.924;2023-01-27T09:35:16;100123.22;;;1.31;100.00
49459;BME280;35354;51.296;16.924;2023-01-27T09:37:56;100124.06;;;1.41;100.00
49459;BME280;35354;51.296;16.924;2023-01-27T09:40:45;100110.38;;;1.22;100.00
49459;BME280;35354;51.296;16.924;2023-01-27T09:43:48;100128.31;;;1.46;100.00
49459;BME280;35354;51.296;16.924;2023-01-27T10:15:18;100142.00;;;1.42;100.00
49459;BME280;35354;51.296;16.924;2023-01-27T10:28:31;100126.63;;;1.35;100.00
49459;BME280;35354;51.296;16.924;2023-01-27T10:31:00;100129.22;;;1.36;100.00
49459;BME280;35354;51.296;16.924;2023-01-27T10:33:50;100126.56;;;1.59;100.00
49459;BME280;35354;51.296;16.924;2023-01-27T10:36:29;100100.94;;;1.47;100.00
49459;BME280;35354;51.296;16.924;2023-01-27T10:42:07;100124.03;;;1.42;100.00
49459;BME280;35354;51.296;16.924;2023-01-27T10:47:22;100123.19;;;1.57;100.00
49459;BME280;35354;51.296;16.924;2023-01-27T10:50:10;100109.53;;;1.24;100.00
49459;BME280;35354;51.296;16.924;2023-01-27T10:52:44;100118.09;;;1.27;100.00
49459;BME280;35354;51.296;16.924;2023-01-27T10:55:27;100113.81;;;1.16;100.00
49459;BME280;35354;51.296;16.924;2023-01-27T10:58:04;100123.22;;;1.25;100.00
49459;BME280;35354;51.296;16.924;2023-01-27T11:03:05;100123.19;;;1.42;100.00
49459;BME280;35354;51.296;16.924;2023-01-27T11:05:37;100118.94;;;1.38;100.00
49459;BME280;35354;51.296;16.924;2023-01-27T11:08:10;100095.81;;;1.35;100.00
49459;BME280;35354;51.296;16.924;2023-01-27T11:10:40;100096.72;;;1.08;100.00
49459;BME280;35354;51.296;16.924;2023-01-27T11:13:29;100117.25;;;1.28;100.00
49459;BME280;35354;51.296;16.924;2023-01-27T11:15:56;100094.16;;;1.08;100.00
49459;BME280;35354;51.296;16.924;2023-01-27T11:18:22;100108.69;;;1.21;100.00
49459;BME280;35354;51.296;16.924;2023-01-27T11:20:52;100098.44;;;0.99;100.00
49459;BME280;35354;51.296;16.924;2023-01-27T11:23:23;100072.78;;;0.96;100.00
49459;BME280;35354;51.296;16.924;2023-01-27T11:26:28;100112.09;;;1.32;100.00
49459;BME280;35354;51.296;16.924;2023-01-27T11:29:18;100112.13;;;1.12;100.00
49459;BME280;35354;51.296;16.924;2023-01-27T11:37:22;100104.41;;;1.32;100.00
49459;BME280;35354;51.296;16.924;2023-01-27T11:39:48;100103.50;;;1.56;100.00
49459;BME280;35354;51.296;16.924;2023-01-27T11:42:14;100095.00;;;1.22;100.00
49459;BME280;35354;51.296;16.924;2023-01-27T11:44:41;100077.91;;;1.21;100.00
49459;BME280;35354;51.296;16.924;2023-01-27T11:47:14;100083.00;;;1.25;100.00
49459;BME280;35354;51.296;16.924;2023-01-27T11:49:47;100084.75;;;1.11;100.00
49459;BME280;35354;51.296;16.924;2023-01-27T11:52:17;100084.69;;;1.42;100.00
49459;BME280;35354;51.296;16.924;2023-01-27T11:54:48;100112.91;;;1.57;100.00
49459;BME280;35354;51.296;16.924;2023-01-27T11:57:20;100106.06;;;1.47;100.00
49459;BME280;35354;51.296;16.924;2023-01-27T11:59:47;100119.81;;;1.31;100.00
49459;BME280;35354;51.296;16.924;2023-01-27T12:02:23;100087.34;;;1.02;100.00
49459;BME280;35354;51.296;16.924;2023-01-27T12:05:08;100076.22;;;0.98;100.00
49459;BME280;35354;51.296;16.924;2023-01-27T12:12:57;100115.53;;;1.36;100.00
49459;BME280;35354;51.296;16.924;2023-01-27T12:15:25;100109.53;;;1.28;100.00
49459;BME280;35354;51.296;16.924;2023-01-27T12:17:55;100085.59;;;1.13;100.00
49459;BME280;35354;51.296;16.924;2023-01-27T12:22:56;100090.72;;;1.27;100.00
49459;BME280;35354;51.296;16.924;2023-01-27T12:25:30;100113.81;;;1.36;100.00
49459;BME280;35354;51.296;16.924;2023-01-27T12:27:58;100112.03;;;1.58;100.00
49459;BME280;35354;51.296;16.924;2023-01-27T12:30:31;100093.25;;;1.42;100.00
49459;BME280;35354;51.296;16.924;2023-01-27T12:32:58;100076.19;;;1.35;100.00
49459;BME280;35354;51.296;16.924;2023-01-27T12:35:33;100058.19;;;1.37;100.00
49459;BME280;35354;51.296;16.924;2023-01-27T12:38:16;100100.09;;;1.46;100.00
49459;BME280;35354;51.296;16.924;2023-01-27T12:40:45;100068.50;;;1.09;100.00
49459;BME280;35354;51.296;16.924;2023-01-27T12:43:13;100057.44;;;0.90;100.00
49459;BME280;35354;51.296;16.924;2023-01-27T12:45:40;100075.38;;;0.93;100.00
49459;BME280;35354;51.296;16.924;2023-01-27T12:50:53;100112.13;;;1.18;100.00
49459;BME280;35354;51.296;16.924;2023-01-27T12:53:21;100107.00;;;1.18;100.00
49459;BME280;35354;51.296;16.924;2023-01-27T12:58:28;100114.72;;;1.14;100.00
49459;BME280;35354;51.296;16.924;2023-01-27T13:00:56;100104.44;;;1.23;100.00
49459;BME280;35354;51.296;16.924;2023-01-27T13:03:24;100113.81;;;1.25;100.00
49459;BME280;35354;51.296;16.924;2023-01-27T13:05:55;100084.75;;;1.11;100.00
49459;BME280;35354;51.296;16.924;2023-01-27T13:08:25;100115.53;;;1.13;100.00
49459;BME280;35354;51.296;16.924;2023-01-27T13:10:54;100086.47;;;1.14;100.00
49459;BME280;35354;51.296;16.924;2023-01-27T13:13:26;100112.09;;;1.34;100.00
49459;BME280;35354;51.296;16.924;2023-01-27T13:18:53;100121.53;;;1.07;100.00
49459;BME280;35354;51.296;16.924;2023-01-27T13:21:20;100124.09;;;1.04;100.00
49459;BME280;35354;51.296;16.924;2023-01-27T13:23:49;100124.09;;;1.07;100.00
49459;BME280;35354;51.296;16.924;2023-01-27T13:26:21;100124.97;;;1.18;100.00
49459;BME280;35354;51.296;16.924;2023-01-27T13:34:34;100121.47;;;1.56;100.00
49459;BME280;35354;51.296;16.924;2023-01-27T13:37:09;100130.06;;;1.26;100.00
49459;BME280;35354;51.296;16.924;2023-01-27T13:42:37;100139.44;;;1.48;100.00
49459;BME280;35354;51.296;16.924;2023-01-27T13:45:11;100109.53;;;1.26;100.00
49459;BME280;35354;51.296;16.924;2023-01-27T13:52:53;100123.25;;;1.27;100.00
49459;BME280;35354;51.296;16.924;2023-01-27T13:58:57;100148.84;;;1.53;100.00
49459;BME280;35354;51.296;16.924;2023-01-27T14:01:54;100159.97;;;1.35;100.00
49459;BME280;35354;51.296;16.924;2023-01-27T14:04:42;100163.41;;;1.29;100.00
49459;BME280;35354;51.296;16.924;2023-01-27T14:10:23;100166.84;;;1.45;100.00
49459;BME280;35354;51.296;16.924;2023-01-27T14:13:01;100139.47;;;1.36;100.00
49459;BME280;35354;51.296;16.924;2023-01-27T14:15:44;100136.09;;;1.14;100.00
49459;BME280;35354;51.296;16.924;2023-01-27T14:18:18;100169.38;;;1.59;100.00
49459;BME280;35354;51.296;16.924;2023-01-27T14:29:35;100147.19;;;1.16;100.00
49459;BME280;35354;51.296;16.924;2023-01-27T14:35:15;100152.31;;;1.29;100.00
49459;BME280;35354;51.296;16.924;2023-01-27T14:51:46;100183.03;;;1.78;100.00
49459;BME280;35354;51.296;16.924;2023-01-27T15:05:19;100188.16;;;1.68;100.00
49459;BME280;35354;51.296;16.924;2023-01-27T15:10:35;100142.00;;;1.53;100.00
49459;BME280;35354;51.296;16.924;2023-01-27T15:19:08;100200.19;;;1.59;100.00
49459;BME280;35354;51.296;16.924;2023-01-27T15:27:12;100197.59;;;1.69;100.00